Aviation Digital Data Service (ADDS)

Output produced by METARs form (0316 UTC 26 February 2017)
found at http://www.aviationweather.gov/adds/metars/
 
KSAV 260253Z 31011KT 10SM CLR 18/M03 A2992 RMK AO2 SLP132 T01781033 52037